Macachin, Argentina
Current Conditions -  °F | °C
As of 5:00 AM on Tuesday 27 Jan 2015 (Local Time) from SAZN Reporting Station
Clear Clear  
Wind Chill: 19°   Ceiling: Unl
Heat Index: 19°   Visibility: 6mi
Dew Point:   Wind: 8mph
Humidity: 49%   Direction: 250°WSW
Pressure: 29.8"   Gusts: NA
Location:  37.15°S, 63.65°W
Report Text: SAZN 270800Z 25007KT CAVOK 19/08 Q1009
Loading
Personal Weather Stations






























Interactive Weather Map New forecast layout! Learn more

10-Day Weather Forecast

Advertisements
Track Severe Weather on mobile